Time;durP1;ratioP1;P1;durP2;ratioP2;P2;SDS_P1;SDS_P2;PMS_P1;PMS_P2;Temp;Humidity;BMP_temperature;BMP_pressure;BME280_temperature;BME280_humidity;BME280_pressure;Samples;Min_cycle;Max_cycle;Signal;HPM_P1;HPM_P2
2022/04/24 00:00:21;;;;;;;23.70;14.57;;;;;;;;;;5093675;28;20054;-81
2022/04/24 00:02:46;;;;;;;22.65;15.00;;;;;;;;;;5075555;28;20087;-82
2022/04/24 00:05:11;;;;;;;23.75;14.85;;;;;;;;;;5092163;28;20032;-81
2022/04/24 00:07:37;;;;;;;24.60;15.13;;;;;;;;;;5092402;28;20036;-82
2022/04/24 00:10:02;;;;;;;23.38;14.88;;;;;;;;;;5075424;28;20032;-81
2022/04/24 00:12:27;;;;;;;25.02;15.50;;;;;;;;;;5093573;28;20077;-81
2022/04/24 00:14:53;;;;;;;23.48;14.70;;;;;;;;;;5091438;28;20501;-82
2022/04/24 00:17:20;;;;;;;23.58;15.48;;;;;;;;;;5093559;28;20024;-82
2022/04/24 00:19:45;;;;;;;25.20;15.70;;;;;;;;;;5093334;28;20032;-82
2022/04/24 00:22:11;;;;;;;25.38;15.45;;;;;;;;;;5094897;28;20184;-82
2022/04/24 00:24:36;;;;;;;22.27;14.18;;;;;;;;;;5092195;28;20036;-82
2022/04/24 00:27:01;;;;;;;22.30;14.60;;;;;;;;;;5093343;28;20040;-82
2022/04/24 00:29:26;;;;;;;22.02;14.80;;;;;;;;;;5095794;28;20031;-82
2022/04/24 00:31:52;;;;;;;24.70;15.50;;;;;;;;;;5094433;28;20089;-81
2022/04/24 00:34:17;;;;;;;22.80;14.85;;;;;;;;;;5093364;28;20093;-82
2022/04/24 00:36:44;;;;;;;24.27;14.95;;;;;;;;;;5093859;28;20038;-81
2022/04/24 00:39:09;;;;;;;26.10;15.57;;;;;;;;;;5093896;28;20434;-82
2022/04/24 00:41:34;;;;;;;27.27;15.50;;;;;;;;;;5093924;28;20085;-82
2022/04/24 00:44:00;;;;;;;27.15;16.58;;;;;;;;;;5091922;28;20040;-81
2022/04/24 00:46:45;;;;;;;24.77;16.00;;;;;;;;;;5093403;28;20412;-82
2022/04/24 00:49:10;;;;;;;27.42;15.95;;;;;;;;;;5093595;28;20035;-81
2022/04/24 00:51:37;;;;;;;25.90;15.77;;;;;;;;;;5076449;28;20024;-82
2022/04/24 00:54:02;;;;;;;25.55;15.85;;;;;;;;;;5093142;28;20079;-81
2022/04/24 00:56:31;;;;;;;26.83;15.55;;;;;;;;;;5093459;28;20036;-82
2022/04/24 00:58:56;;;;;;;26.05;16.55;;;;;;;;;;5092646;28;20032;-81
2022/04/24 01:01:21;;;;;;;25.67;15.73;;;;;;;;;;5075133;28;20171;-82
2022/04/24 01:03:46;;;;;;;25.00;16.20;;;;;;;;;;5092735;28;20036;-82
2022/04/24 01:06:12;;;;;;;24.75;15.15;;;;;;;;;;5092329;28;20481;-81
2022/04/24 01:08:37;;;;;;;23.38;15.15;;;;;;;;;;5093396;28;20119;-82
2022/04/24 01:11:02;;;;;;;22.77;14.32;;;;;;;;;;5094005;28;20064;-81
2022/04/24 01:13:28;;;;;;;22.98;14.15;;;;;;;;;;5093325;28;20114;-82
2022/04/24 01:15:53;;;;;;;27.17;15.75;;;;;;;;;;5092100;28;20035;-82
2022/04/24 01:18:18;;;;;;;25.63;15.18;;;;;;;;;;5091514;28;20631;-81
2022/04/24 01:20:43;;;;;;;25.85;16.13;;;;;;;;;;5092608;28;20106;-81
2022/04/24 01:23:08;;;;;;;30.27;15.40;;;;;;;;;;5092619;28;20066;-81
2022/04/24 01:25:34;;;;;;;23.73;14.80;;;;;;;;;;5090764;28;20040;-81
2022/04/24 01:27:59;;;;;;;25.77;15.60;;;;;;;;;;5092718;28;20084;-81
2022/04/24 01:30:24;;;;;;;26.13;16.10;;;;;;;;;;5093038;28;20024;-81
2022/04/24 01:32:52;;;;;;;21.33;14.60;;;;;;;;;;5092486;28;20445;-81
2022/04/24 01:35:18;;;;;;;27.13;15.70;;;;;;;;;;5091864;28;20020;-82
2022/04/24 01:37:43;;;;;;;24.88;15.68;;;;;;;;;;5092431;28;20043;-81
2022/04/24 01:40:09;;;;;;;24.63;16.00;;;;;;;;;;5091103;28;20047;-81
2022/04/24 01:42:34;;;;;;;26.00;16.48;;;;;;;;;;5091170;28;20059;-81
2022/04/24 01:44:59;;;;;;;26.73;16.27;;;;;;;;;;5091749;28;20489;-81
2022/04/24 01:47:24;;;;;;;25.23;16.10;;;;;;;;;;5090988;28;20040;-81
2022/04/24 01:49:50;;;;;;;23.73;15.45;;;;;;;;;;5092164;28;20028;-81
2022/04/24 01:52:15;;;;;;;28.73;16.95;;;;;;;;;;5092139;28;20491;-82
2022/04/24 01:54:40;;;;;;;25.77;16.45;;;;;;;;;;5091726;28;20112;-80
2022/04/24 01:57:05;;;;;;;25.60;15.45;;;;;;;;;;5091129;28;20507;-81
2022/04/24 01:59:31;;;;;;;26.48;16.00;;;;;;;;;;5090904;28;20480;-81
2022/04/24 02:01:56;;;;;;;25.00;15.70;;;;;;;;;;5092138;28;20400;-81
2022/04/24 02:04:23;;;;;;;25.52;15.80;;;;;;;;;;5091332;28;20100;-81
2022/04/24 02:06:48;;;;;;;27.02;16.38;;;;;;;;;;5092413;28;20028;-82
2022/04/24 02:09:13;;;;;;;28.00;16.27;;;;;;;;;;5092283;28;20032;-82
2022/04/24 02:11:38;;;;;;;27.15;16.27;;;;;;;;;;5094360;28;20038;-81
2022/04/24 02:14:04;;;;;;;27.58;16.27;;;;;;;;;;5095442;28;20115;-81
2022/04/24 02:16:30;;;;;;;26.65;16.20;;;;;;;;;;5095635;28;20034;-81
2022/04/24 02:18:55;;;;;;;28.88;17.67;;;;;;;;;;5095680;28;20036;-81
2022/04/24 02:21:20;;;;;;;31.73;18.23;;;;;;;;;;5095624;28;20036;-81
2022/04/24 02:23:46;;;;;;;27.73;16.60;;;;;;;;;;5095690;28;20028;-81
2022/04/24 02:26:11;;;;;;;33.88;18.00;;;;;;;;;;5094672;28;20036;-80
2022/04/24 02:28:37;;;;;;;29.85;17.40;;;;;;;;;;5095383;28;20089;-81
2022/04/24 02:31:02;;;;;;;28.17;17.75;;;;;;;;;;5077303;28;20089;-81
2022/04/24 02:33:27;;;;;;;29.50;17.50;;;;;;;;;;5094358;28;20089;-82
2022/04/24 02:35:52;;;;;;;28.42;16.65;;;;;;;;;;5094964;28;20115;-81
2022/04/24 02:38:18;;;;;;;23.83;14.43;;;;;;;;;;5093915;28;20507;-81
2022/04/24 02:40:43;;;;;;;23.08;14.38;;;;;;;;;;5095185;28;20396;-81
2022/04/24 02:43:08;;;;;;;27.65;16.00;;;;;;;;;;5095443;28;20028;-81
2022/04/24 02:45:33;;;;;;;27.10;15.73;;;;;;;;;;5094639;28;20082;-81
2022/04/24 02:47:59;;;;;;;25.63;15.60;;;;;;;;;;5095584;28;20111;-81
2022/04/24 02:50:24;;;;;;;28.48;15.45;;;;;;;;;;5094789;28;20101;-81
2022/04/24 02:52:49;;;;;;;25.35;16.00;;;;;;;;;;5094867;28;20028;-81
2022/04/24 02:55:14;;;;;;;26.65;16.38;;;;;;;;;;5094340;28;20025;-81
2022/04/24 02:57:40;;;;;;;26.92;16.02;;;;;;;;;;5093599;28;20051;-81
2022/04/24 03:00:07;;;;;;;25.80;15.75;;;;;;;;;;5093965;28;20484;-81
2022/04/24 03:02:32;;;;;;;23.20;14.80;;;;;;;;;;5094900;28;20035;-82
2022/04/24 03:04:57;;;;;;;25.20;15.90;;;;;;;;;;5092843;28;20437;-81
2022/04/24 03:07:23;;;;;;;28.05;16.02;;;;;;;;;;5093687;28;20081;-81
2022/04/24 03:09:48;;;;;;;29.98;16.88;;;;;;;;;;5094756;28;20479;-81
2022/04/24 03:12:13;;;;;;;30.13;16.63;;;;;;;;;;5094689;28;20504;-81
2022/04/24 03:14:39;;;;;;;29.50;16.13;;;;;;;;;;5094000;28;20047;-81
2022/04/24 03:17:04;;;;;;;27.25;16.10;;;;;;;;;;5094520;28;20036;-81
2022/04/24 03:19:29;;;;;;;29.67;16.65;;;;;;;;;;5094299;28;20031;-82
2022/04/24 03:21:54;;;;;;;28.13;16.02;;;;;;;;;;5094619;28;20032;-81
2022/04/24 03:24:20;;;;;;;29.15;15.60;;;;;;;;;;5092506;28;20040;-81
2022/04/24 03:26:45;;;;;;;28.63;16.55;;;;;;;;;;5093351;28;20094;-81
2022/04/24 03:29:10;;;;;;;24.70;15.90;;;;;;;;;;5094387;28;20034;-81
2022/04/24 03:31:35;;;;;;;24.77;14.93;;;;;;;;;;5094232;28;20052;-81
2022/04/24 03:34:00;;;;;;;25.00;15.18;;;;;;;;;;5093637;28;20484;-81
2022/04/24 03:36:26;;;;;;;25.23;15.20;;;;;;;;;;5094102;28;20069;-81
2022/04/24 03:38:51;;;;;;;28.50;16.30;;;;;;;;;;5094179;28;20051;-81
2022/04/24 03:41:16;;;;;;;24.05;15.20;;;;;;;;;;5092760;28;20030;-81
2022/04/24 03:43:42;;;;;;;24.45;14.20;;;;;;;;;;5093893;28;20031;-82
2022/04/24 03:46:07;;;;;;;24.00;14.82;;;;;;;;;;5093430;28;20047;-81
2022/04/24 03:48:32;;;;;;;27.02;14.75;;;;;;;;;;5092943;28;20024;-81
2022/04/24 03:50:57;;;;;;;24.17;14.55;;;;;;;;;;5092872;28;20559;-81
2022/04/24 03:53:23;;;;;;;22.77;13.52;;;;;;;;;;5094066;28;20031;-82
2022/04/24 03:55:48;;;;;;;20.30;13.20;;;;;;;;;;5093348;28;20438;-81
2022/04/24 03:58:13;;;;;;;19.13;11.40;;;;;;;;;;5093851;28;20117;-82
2022/04/24 04:00:38;;;;;;;10.00;5.65;;;;;;;;;;5093813;28;20063;-81
2022/04/24 04:03:03;;;;;;;7.03;3.40;;;;;;;;;;5092290;28;20036;-81
2022/04/24 04:05:29;;;;;;;6.05;3.67;;;;;;;;;;5093534;28;20396;-82
2022/04/24 04:07:55;;;;;;;7.03;4.03;;;;;;;;;;5094883;28;20035;-81
2022/04/24 04:10:21;;;;;;;7.47;2.53;;;;;;;;;;5093782;28;20484;-81
2022/04/24 04:12:47;;;;;;;4.35;1.90;;;;;;;;;;5093487;28;20043;-80
2022/04/24 04:15:12;;;;;;;7.20;3.83;;;;;;;;;;5092910;28;20032;-81
2022/04/24 04:17:37;;;;;;;5.45;2.83;;;;;;;;;;5092223;28;20051;-81
2022/04/24 04:20:02;;;;;;;7.88;2.70;;;;;;;;;;5092357;28;20032;-81
2022/04/24 04:22:28;;;;;;;13.80;3.88;;;;;;;;;;5092257;28;20039;-81
2022/04/24 04:24:53;;;;;;;11.38;4.03;;;;;;;;;;5092557;28;20028;-81
2022/04/24 04:27:18;;;;;;;3.00;1.40;;;;;;;;;;5092031;28;20507;-81
2022/04/24 04:29:43;;;;;;;1.88;0.85;;;;;;;;;;5091897;28;20056;-81
2022/04/24 04:32:09;;;;;;;0.40;0.40;;;;;;;;;;5091993;28;20492;-81
2022/04/24 04:34:34;;;;;;;0.73;0.60;;;;;;;;;;5092100;28;20112;-81
2022/04/24 04:36:59;;;;;;;2.17;0.90;;;;;;;;;;5093145;28;20039;-81
2022/04/24 04:39:24;;;;;;;1.48;0.90;;;;;;;;;;5092987;28;20114;-81
2022/04/24 04:41:50;;;;;;;1.08;0.60;;;;;;;;;;5093243;28;20043;-82
2022/04/24 04:44:15;;;;;;;0.50;0.50;;;;;;;;;;5092524;28;20028;-81
2022/04/24 04:46:40;;;;;;;2.35;0.70;;;;;;;;;;5092984;28;20523;-81
2022/04/24 04:49:05;;;;;;;0.60;0.60;;;;;;;;;;5092861;28;20153;-81
2022/04/24 04:51:31;;;;;;;1.00;0.90;;;;;;;;;;5092873;28;20044;-81
2022/04/24 04:53:56;;;;;;;3.80;0.70;;;;;;;;;;5092679;28;20027;-80
2022/04/24 04:56:21;;;;;;;1.80;0.80;;;;;;;;;;5091431;28;20064;-81
2022/04/24 04:58:46;;;;;;;2.08;0.80;;;;;;;;;;5093366;28;20043;-82
2022/04/24 05:01:12;;;;;;;1.20;0.70;;;;;;;;;;5093773;28;20036;-81
2022/04/24 05:03:37;;;;;;;0.60;0.60;;;;;;;;;;5093523;28;20024;-81
2022/04/24 05:06:02;;;;;;;3.83;0.52;;;;;;;;;;5092317;28;20051;-81
2022/04/24 05:08:27;;;;;;;0.77;0.50;;;;;;;;;;5092068;28;20031;-81
2022/04/24 05:10:53;;;;;;;1.00;0.60;;;;;;;;;;5092988;28;20036;-81
2022/04/24 05:13:18;;;;;;;2.53;0.68;;;;;;;;;;5093437;28;20507;-81
2022/04/24 05:15:43;;;;;;;2.83;1.10;;;;;;;;;;5092634;28;20407;-82
2022/04/24 05:18:08;;;;;;;1.58;0.50;;;;;;;;;;5093605;28;20081;-82
2022/04/24 05:20:34;;;;;;;0.98;0.80;;;;;;;;;;5093086;28;20074;-81
2022/04/24 05:23:00;;;;;;;6.43;0.95;;;;;;;;;;5093937;28;20085;-82
2022/04/24 05:25:25;;;;;;;2.80;1.80;;;;;;;;;;5092330;28;20033;-81
2022/04/24 05:27:50;;;;;;;4.45;2.10;;;;;;;;;;5093392;28;20032;-82
2022/04/24 05:30:15;;;;;;;5.35;2.67;;;;;;;;;;5093810;28;20125;-82
2022/04/24 05:32:41;;;;;;;6.70;3.60;;;;;;;;;;5094032;28;20040;-82
2022/04/24 05:35:07;;;;;;;8.38;4.70;;;;;;;;;;5093173;28;20036;-82
2022/04/24 05:37:32;;;;;;;10.57;6.65;;;;;;;;;;5093708;28;20035;-82
2022/04/24 05:39:58;;;;;;;10.23;6.95;;;;;;;;;;5092572;28;20058;-82
2022/04/24 05:42:23;;;;;;;12.13;7.13;;;;;;;;;;5092460;28;20043;-82
2022/04/24 05:44:48;;;;;;;11.38;7.40;;;;;;;;;;5093894;28;20049;-82
2022/04/24 05:47:13;;;;;;;13.35;7.28;;;;;;;;;;5095872;28;20047;-82
2022/04/24 05:49:39;;;;;;;16.35;7.60;;;;;;;;;;5096188;28;20480;-83
2022/04/24 05:52:04;;;;;;;11.73;7.65;;;;;;;;;;5096068;28;20031;-83
2022/04/24 05:54:30;;;;;;;12.10;7.25;;;;;;;;;;5095416;28;20065;-82
2022/04/24 05:56:55;;;;;;;10.98;7.30;;;;;;;;;;5096009;28;20058;-82
2022/04/24 05:59:21;;;;;;;10.95;6.82;;;;;;;;;;5097739;28;20388;-81
2022/04/24 06:01:46;;;;;;;10.70;6.40;;;;;;;;;;5097786;28;20046;-82
2022/04/24 06:04:11;;;;;;;11.15;6.07;;;;;;;;;;5097135;28;20093;-81
2022/04/24 06:06:36;;;;;;;8.95;6.55;;;;;;;;;;5095657;28;20070;-82
2022/04/24 06:09:02;;;;;;;9.02;5.90;;;;;;;;;;5096174;28;20031;-82
2022/04/24 06:11:27;;;;;;;8.50;5.60;;;;;;;;;;5099143;28;20576;-83
2022/04/24 06:13:53;;;;;;;9.25;6.03;;;;;;;;;;5097694;28;20396;-83
2022/04/24 06:16:18;;;;;;;9.13;5.95;;;;;;;;;;5080346;28;20020;-84
2022/04/24 06:18:43;;;;;;;10.60;6.07;;;;;;;;;;5098953;28;20035;-83
2022/04/24 06:21:08;;;;;;;10.07;6.10;;;;;;;;;;5098336;28;20028;-84
2022/04/24 06:23:33;;;;;;;9.10;6.07;;;;;;;;;;5098091;28;20054;-83
2022/04/24 06:25:59;;;;;;;10.75;6.70;;;;;;;;;;5097010;28;20036;-83
2022/04/24 06:28:24;;;;;;;11.30;6.40;;;;;;;;;;5098877;28;20337;-83
2022/04/24 06:30:49;;;;;;;10.77;6.82;;;;;;;;;;5098221;28;20085;-83
2022/04/24 06:33:14;;;;;;;10.98;6.40;;;;;;;;;;5097366;28;20077;-83
2022/04/24 06:35:41;;;;;;;10.05;6.90;;;;;;;;;;5095667;28;20058;-82
2022/04/24 06:38:06;;;;;;;10.35;6.30;;;;;;;;;;5096285;28;20515;-82
2022/04/24 06:40:32;;;;;;;10.02;6.25;;;;;;;;;;5094085;28;20036;-83
2022/04/24 06:42:57;;;;;;;9.65;6.60;;;;;;;;;;5096596;28;20035;-82
2022/04/24 06:45:25;;;;;;;15.30;6.68;;;;;;;;;;5093558;28;20074;-83
2022/04/24 06:47:50;;;;;;;9.30;6.28;;;;;;;;;;5095410;28;20088;-83
2022/04/24 06:50:15;;;;;;;9.77;6.20;;;;;;;;;;5096153;28;20111;-84
2022/04/24 06:52:40;;;;;;;9.32;6.28;;;;;;;;;;5095528;28;20039;-82
2022/04/24 06:55:06;;;;;;;10.32;6.88;;;;;;;;;;5093462;28;20028;-82
2022/04/24 06:57:33;;;;;;;8.98;6.40;;;;;;;;;;5093782;28;20384;-83
2022/04/24 06:59:58;;;;;;;10.20;7.30;;;;;;;;;;5094307;28;20039;-84
2022/04/24 07:02:23;;;;;;;10.18;7.20;;;;;;;;;;5095105;28;20032;-82
2022/04/24 07:04:48;;;;;;;11.18;7.00;;;;;;;;;;5093627;28;20047;-82
2022/04/24 07:07:14;;;;;;;9.90;6.82;;;;;;;;;;5094351;28;20032;-82
2022/04/24 07:09:39;;;;;;;10.07;6.72;;;;;;;;;;5093908;28;20453;-81
2022/04/24 07:12:04;;;;;;;9.82;6.80;;;;;;;;;;5094840;28;20081;-80
2022/04/24 07:14:29;;;;;;;8.88;6.50;;;;;;;;;;5093162;28;20046;-82
2022/04/24 07:16:54;;;;;;;11.55;7.00;;;;;;;;;;5094675;28;20025;-82
2022/04/24 07:19:20;;;;;;;10.73;7.20;;;;;;;;;;5094632;28;20079;-82
2022/04/24 07:21:48;;;;;;;10.65;6.90;;;;;;;;;;5094402;28;20047;-82
2022/04/24 07:24:13;;;;;;;10.45;7.20;;;;;;;;;;5092844;28;20024;-82
2022/04/24 07:26:38;;;;;;;11.30;7.40;;;;;;;;;;5094842;28;20399;-83
2022/04/24 07:29:03;;;;;;;11.07;6.70;;;;;;;;;;5092976;28;20032;-82
2022/04/24 07:31:29;;;;;;;12.07;7.72;;;;;;;;;;5094777;28;20032;-82
2022/04/24 07:33:56;;;;;;;11.27;7.38;;;;;;;;;;5086525;28;20032;-81
2022/04/24 07:36:21;;;;;;;11.82;7.75;;;;;;;;;;5092258;28;20067;-82
2022/04/24 07:38:47;;;;;;;10.85;7.53;;;;;;;;;;5059135;28;20036;-83
2022/04/24 07:41:12;;;;;;;12.20;7.60;;;;;;;;;;5079791;28;20024;-82
2022/04/24 07:43:37;;;;;;;13.30;7.78;;;;;;;;;;5095345;28;20028;-81
2022/04/24 07:46:03;;;;;;;12.45;7.30;;;;;;;;;;5094201;28;20111;-82
2022/04/24 07:48:28;;;;;;;10.10;6.88;;;;;;;;;;5095526;28;20043;-82
2022/04/24 07:50:54;;;;;;;11.82;7.90;;;;;;;;;;5080773;28;20040;-82
2022/04/24 07:53:19;;;;;;;12.77;7.32;;;;;;;;;;5074202;28;20108;-81
2022/04/24 07:55:44;;;;;;;11.50;7.43;;;;;;;;;;5073410;28;20040;-82
2022/04/24 07:58:09;;;;;;;9.75;6.97;;;;;;;;;;5073960;28;20020;-82
2022/04/24 08:00:35;;;;;;;10.88;7.55;;;;;;;;;;5073094;28;20032;-82
2022/04/24 08:03:01;;;;;;;12.63;7.53;;;;;;;;;;5074314;28;20044;-82
2022/04/24 08:05:26;;;;;;;11.07;7.45;;;;;;;;;;5073879;28;20032;-82
2022/04/24 08:07:51;;;;;;;11.05;7.40;;;;;;;;;;5073597;28;20044;-81
2022/04/24 08:10:17;;;;;;;10.15;7.03;;;;;;;;;;5073976;28;20033;-82
2022/04/24 08:12:42;;;;;;;11.30;7.75;;;;;;;;;;5074333;28;20038;-82
2022/04/24 08:15:07;;;;;;;10.88;7.07;;;;;;;;;;5073876;28;20028;-82
2022/04/24 08:17:32;;;;;;;11.50;7.40;;;;;;;;;;5086915;28;20392;-82
2022/04/24 08:19:58;;;;;;;9.80;7.00;;;;;;;;;;5096277;28;20032;-85
2022/04/24 08:22:23;;;;;;;13.30;7.28;;;;;;;;;;5099094;28;20683;-85
2022/04/24 08:24:48;;;;;;;11.00;6.60;;;;;;;;;;5095563;28;20032;-82
2022/04/24 08:27:13;;;;;;;9.65;6.63;;;;;;;;;;5094416;28;20043;-82
2022/04/24 08:29:39;;;;;;;9.40;6.60;;;;;;;;;;5075838;28;20036;-83
2022/04/24 08:32:04;;;;;;;9.90;6.78;;;;;;;;;;5094258;28;20106;-83
2022/04/24 08:34:29;;;;;;;10.68;6.95;;;;;;;;;;5092775;28;20518;-84
2022/04/24 08:36:54;;;;;;;11.45;6.70;;;;;;;;;;5092833;28;20054;-84
2022/04/24 08:39:19;;;;;;;11.27;6.72;;;;;;;;;;5095557;28;20043;-84
2022/04/24 08:41:45;;;;;;;9.07;6.47;;;;;;;;;;5084476;28;20032;-83
2022/04/24 08:44:10;;;;;;;11.30;7.28;;;;;;;;;;5073379;28;20077;-81
2022/04/24 08:46:35;;;;;;;10.48;6.95;;;;;;;;;;5074434;28;20043;-83
2022/04/24 08:49:00;;;;;;;8.85;6.80;;;;;;;;;;5073503;28;20408;-83
2022/04/24 08:51:26;;;;;;;9.45;7.00;;;;;;;;;;5073159;28;20035;-83
2022/04/24 08:53:51;;;;;;;11.05;6.57;;;;;;;;;;5071826;28;20060;-85
2022/04/24 08:56:16;;;;;;;9.95;6.95;;;;;;;;;;5073069;28;20036;-85
2022/04/24 08:58:42;;;;;;;9.57;6.47;;;;;;;;;;5073392;28;20036;-84
2022/04/24 09:01:07;;;;;;;8.65;6.53;;;;;;;;;;5073443;28;20032;-85
2022/04/24 09:03:33;;;;;;;11.98;6.80;;;;;;;;;;5074783;28;20040;-85
2022/04/24 09:05:58;;;;;;;8.68;6.43;;;;;;;;;;5074741;28;20238;-83
2022/04/24 09:08:26;;;;;;;10.75;6.22;;;;;;;;;;5073889;28;20028;-82
2022/04/24 09:10:52;;;;;;;8.75;6.07;;;;;;;;;;5074514;28;20481;-83
2022/04/24 09:13:17;;;;;;;9.85;5.72;;;;;;;;;;5073577;28;20036;-83
2022/04/24 09:15:42;;;;;;;7.50;5.47;;;;;;;;;;5071611;28;20040;-83
2022/04/24 09:18:07;;;;;;;7.57;5.00;;;;;;;;;;5072565;28;20029;-83
2022/04/24 09:20:36;;;;;;;7.43;4.72;;;;;;;;;;5075408;28;20036;-83
2022/04/24 09:23:01;;;;;;;7.40;4.63;;;;;;;;;;5077136;28;20085;-84
2022/04/24 09:25:26;;;;;;;6.40;4.40;;;;;;;;;;5076285;28;20478;-84
2022/04/24 09:27:51;;;;;;;7.13;4.80;;;;;;;;;;5075843;28;20135;-83
2022/04/24 09:30:17;;;;;;;7.07;4.82;;;;;;;;;;5077470;28;20028;-83
2022/04/24 09:32:42;;;;;;;6.90;4.57;;;;;;;;;;5076793;28;20615;-82
2022/04/24 09:35:07;;;;;;;6.32;4.30;;;;;;;;;;5076407;28;20047;-83
2022/04/24 09:37:32;;;;;;;5.68;4.28;;;;;;;;;;5076937;28;20435;-83
2022/04/24 09:39:58;;;;;;;6.15;3.92;;;;;;;;;;5078013;28;20036;-83
2022/04/24 09:42:23;;;;;;;4.60;3.03;;;;;;;;;;5078633;28;20055;-84
2022/04/24 09:44:48;;;;;;;4.55;2.90;;;;;;;;;;5078234;28;20579;-83
2022/04/24 09:47:13;;;;;;;3.70;2.53;;;;;;;;;;5077608;28;20046;-83
2022/04/24 09:49:39;;;;;;;2.60;1.90;;;;;;;;;;5078511;28;20554;-83
2022/04/24 09:52:04;;;;;;;2.80;1.75;;;;;;;;;;5076639;28;20068;-83
2022/04/24 09:54:29;;;;;;;2.13;1.60;;;;;;;;;;5077852;28;20090;-84
2022/04/24 09:56:54;;;;;;;3.17;1.33;;;;;;;;;;5079687;28;20037;-84
2022/04/24 09:59:20;;;;;;;1.90;1.33;;;;;;;;;;5080303;28;20040;-85
2022/04/24 10:01:45;;;;;;;3.13;1.27;;;;;;;;;;5081293;28;20036;-83
2022/04/24 10:04:11;;;;;;;2.97;1.20;;;;;;;;;;5077562;28;20029;-82
2022/04/24 10:06:36;;;;;;;1.67;1.20;;;;;;;;;;5079131;28;20123;-83
2022/04/24 10:09:01;;;;;;;2.67;1.40;;;;;;;;;;5080323;28;20032;-83
2022/04/24 10:11:26;;;;;;;1.80;1.30;;;;;;;;;;5078439;28;20074;-82
2022/04/24 10:13:52;;;;;;;3.15;1.30;;;;;;;;;;5078279;28;20043;-82
2022/04/24 10:16:17;;;;;;;1.52;1.20;;;;;;;;;;5076457;28;20155;-83
2022/04/24 10:18:42;;;;;;;2.35;1.10;;;;;;;;;;5075273;28;20083;-83
2022/04/24 10:21:08;;;;;;;1.50;1.10;;;;;;;;;;5076940;28;20055;-83
2022/04/24 10:23:33;;;;;;;1.30;1.00;;;;;;;;;;5075530;28;20020;-83
2022/04/24 10:25:58;;;;;;;0.73;0.60;;;;;;;;;;5077492;28;20040;-84
2022/04/24 10:28:24;;;;;;;2.00;1.45;;;;;;;;;;5078342;28;20037;-83
2022/04/24 10:30:49;;;;;;;1.10;0.52;;;;;;;;;;5077041;28;20036;-83
2022/04/24 10:33:18;;;;;;;1.02;0.80;;;;;;;;;;5076167;28;20078;-81
2022/04/24 10:35:43;;;;;;;1.83;0.60;;;;;;;;;;5075586;28;20047;-82
2022/04/24 10:38:09;;;;;;;0.75;0.50;;;;;;;;;;5058891;28;20029;-82
2022/04/24 10:40:34;;;;;;;1.88;1.20;;;;;;;;;;5078391;28;20033;-87
2022/04/24 10:42:59;;;;;;;0.90;0.60;;;;;;;;;;5077023;28;20016;-84
2022/04/24 10:45:25;;;;;;;2.35;1.48;;;;;;;;;;5077909;28;20095;-84
2022/04/24 10:47:50;;;;;;;3.10;0.60;;;;;;;;;;5076352;28;20078;-85
2022/04/24 10:50:18;;;;;;;1.48;0.70;;;;;;;;;;5075737;28;20028;-85
2022/04/24 10:52:46;;;;;;;0.68;0.50;;;;;;;;;;5077935;28;20032;-84
2022/04/24 10:55:12;;;;;;;0.82;0.63;;;;;;;;;;5077692;28;20493;-85
2022/04/24 10:57:40;;;;;;;0.65;0.50;;;;;;;;;;5087875;28;20020;-84
2022/04/24 11:00:05;;;;;;;0.38;0.38;;;;;;;;;;5097297;28;20042;-85
2022/04/24 11:02:32;;;;;;;3.70;0.50;;;;;;;;;;5097524;28;20512;-86
2022/04/24 11:04:58;;;;;;;0.50;0.40;;;;;;;;;;5097617;28;20043;-83
2022/04/24 11:07:23;;;;;;;3.42;0.47;;;;;;;;;;5096587;28;20036;-83
2022/04/24 11:09:48;;;;;;;0.98;0.60;;;;;;;;;;5098696;28;20023;-83
2022/04/24 11:12:14;;;;;;;1.08;0.63;;;;;;;;;;5096874;28;20051;-84
2022/04/24 11:14:39;;;;;;;1.55;0.65;;;;;;;;;;5095611;28;20031;-84
2022/04/24 11:17:04;;;;;;;1.55;0.70;;;;;;;;;;5094189;28;20035;-84
2022/04/24 11:19:30;;;;;;;1.02;0.50;;;;;;;;;;5095299;28;20043;-84
2022/04/24 11:21:55;;;;;;;0.65;0.47;;;;;;;;;;5094433;28;20039;-84
2022/04/24 11:24:21;;;;;;;0.65;0.60;;;;;;;;;;5094124;28;20128;-84
2022/04/24 11:26:46;;;;;;;0.75;0.63;;;;;;;;;;5095701;28;20438;-84
2022/04/24 11:29:11;;;;;;;5.82;0.98;;;;;;;;;;5094141;28;20024;-82
2022/04/24 11:31:37;;;;;;;1.67;0.65;;;;;;;;;;5093598;28;20036;-83
2022/04/24 11:34:04;;;;;;;1.92;0.63;;;;;;;;;;5093760;28;20100;-83
2022/04/24 11:36:30;;;;;;;0.75;0.68;;;;;;;;;;5094199;28;20131;-83
2022/04/24 11:38:56;;;;;;;0.82;0.60;;;;;;;;;;5094041;28;20036;-83
2022/04/24 11:41:21;;;;;;;1.40;0.63;;;;;;;;;;5093932;28;20510;-83
2022/04/24 11:43:46;;;;;;;1.05;0.63;;;;;;;;;;5092939;28;20032;-83
2022/04/24 11:51:40;;;;;;;;;;;;;;;;;;5093544;28;20038;-81
2022/04/24 11:54:05;;;;;;;0.27;0.27;;;;;;;;;;5092639;28;19908;-84
2022/04/24 11:56:32;;;;;;;1.85;0.40;;;;;;;;;;5094928;28;20728;-83
2022/04/24 11:58:57;;;;;;;0.38;0.38;;;;;;;;;;5092991;28;20172;-82
2022/04/24 12:01:22;;;;;;;0.30;0.30;;;;;;;;;;5094573;28;20039;-83
2022/04/24 12:03:48;;;;;;;0.30;0.30;;;;;;;;;;5076544;28;20100;-82
2022/04/24 12:06:13;;;;;;;1.13;0.50;;;;;;;;;;5075584;28;20036;-84
2022/04/24 12:08:39;;;;;;;2.75;0.50;;;;;;;;;;5095338;28;20695;-84
2022/04/24 12:11:04;;;;;;;2.55;0.40;;;;;;;;;;5095937;28;20020;-83
2022/04/24 12:13:29;;;;;;;3.30;0.50;;;;;;;;;;5093796;28;20028;-81
2022/04/24 12:15:54;;;;;;;0.40;0.40;;;;;;;;;;5093984;28;20055;-83
2022/04/24 12:18:20;;;;;;;1.02;0.60;;;;;;;;;;5095755;28;20105;-82
2022/04/24 12:20:45;;;;;;;2.35;0.52;;;;;;;;;;5096358;28;20036;-82
2022/04/24 12:23:11;;;;;;;1.60;0.70;;;;;;;;;;5094560;28;20028;-82
2022/04/24 12:25:36;;;;;;;1.98;0.63;;;;;;;;;;5094204;28;20515;-84
2022/04/24 12:28:02;;;;;;;4.22;0.60;;;;;;;;;;5095112;28;20047;-83
2022/04/24 12:30:27;;;;;;;1.88;0.40;;;;;;;;;;5093424;28;20522;-84
2022/04/24 12:32:52;;;;;;;0.65;0.40;;;;;;;;;;5094240;28;20032;-83
2022/04/24 12:35:17;;;;;;;1.52;0.60;;;;;;;;;;5092943;28;20036;-85
2022/04/24 12:37:43;;;;;;;2.75;0.63;;;;;;;;;;5094618;28;20063;-83
2022/04/24 12:40:08;;;;;;;1.42;0.50;;;;;;;;;;5095604;28;20035;-84
2022/04/24 12:42:33;;;;;;;0.98;0.50;;;;;;;;;;5078497;28;20024;-84
2022/04/24 12:44:58;;;;;;;1.67;0.40;;;;;;;;;;5095868;28;20504;-85
2022/04/24 12:47:24;;;;;;;2.40;0.60;;;;;;;;;;5095432;28;20040;-85
2022/04/24 12:49:49;;;;;;;0.68;0.40;;;;;;;;;;5097458;28;20468;-85
2022/04/24 12:52:14;;;;;;;0.65;0.40;;;;;;;;;;5097989;28;20032;-85
2022/04/24 12:54:39;;;;;;;0.40;0.30;;;;;;;;;;5095999;28;20038;-85
2022/04/24 12:57:05;;;;;;;0.98;0.38;;;;;;;;;;5097537;28;20091;-85
2022/04/24 12:59:31;;;;;;;0.40;0.30;;;;;;;;;;5096799;28;20044;-86
2022/04/24 13:01:57;;;;;;;0.82;0.52;;;;;;;;;;5095564;28;20039;-85
2022/04/24 13:04:22;;;;;;;0.40;0.40;;;;;;;;;;5096083;28;20115;-86
2022/04/24 13:06:48;;;;;;;0.85;0.50;;;;;;;;;;5094955;28;20139;-85
2022/04/24 13:09:13;;;;;;;1.75;1.20;;;;;;;;;;5094941;28;20046;-86
2022/04/24 13:11:39;;;;;;;1.55;1.08;;;;;;;;;;5096511;28;20036;-85
2022/04/24 13:14:05;;;;;;;3.42;2.45;;;;;;;;;;5095032;28;20099;-85
2022/04/24 13:19:14;;;;;;;4.00;1.77;;;;;;;;;;5095877;28;20036;-84
2022/04/24 13:21:39;;;;;;;7.50;3.45;;;;;;;;;;5096365;28;20490;-84
2022/04/24 13:24:04;;;;;;;89.90;31.70;;;;;;;;;;5081230;28;20459;-84
2022/04/24 13:26:30;;;;;;;33.00;12.30;;;;;;;;;;5091490;28;20047;-84
2022/04/24 13:28:55;;;;;;;60.83;19.60;;;;;;;;;;5075210;28;20115;-84
2022/04/24 13:31:20;;;;;;;36.08;10.82;;;;;;;;;;5082359;28;20036;-85
2022/04/24 13:33:45;;;;;;;131.63;32.00;;;;;;;;;;5095819;28;20119;-84
2022/04/24 13:36:11;;;;;;;84.15;21.50;;;;;;;;;;5093767;28;20080;-83
2022/04/24 13:38:39;;;;;;;3.42;1.10;;;;;;;;;;5093554;28;20400;-83
2022/04/24 13:41:05;;;;;;;91.15;26.80;;;;;;;;;;5074922;28;20040;-84
2022/04/24 13:43:32;;;;;;;1.88;0.95;;;;;;;;;;5073398;28;20488;-83
2022/04/24 13:45:58;;;;;;;1.30;0.63;;;;;;;;;;5071188;28;20029;-84
2022/04/24 13:48:26;;;;;;;1.10;1.00;;;;;;;;;;5073482;28;20047;-83
2022/04/24 13:50:55;;;;;;;1.75;0.80;;;;;;;;;;5072678;28;20043;-83
2022/04/24 13:53:20;;;;;;;0.65;0.50;;;;;;;;;;5073905;28;20039;-83
2022/04/24 13:55:45;;;;;;;15.98;6.38;;;;;;;;;;5073375;28;20037;-83
2022/04/24 13:58:10;;;;;;;2.80;1.30;;;;;;;;;;5090453;28;20119;-83
2022/04/24 14:00:36;;;;;;;16.80;7.80;;;;;;;;;;5093297;28;20036;-83
2022/04/24 14:03:04;;;;;;;24.75;11.40;;;;;;;;;;5092421;28;20032;-84
2022/04/24 14:05:29;;;;;;;2.17;1.10;;;;;;;;;;5091142;28;20091;-83
2022/04/24 14:07:54;;;;;;;12.88;5.55;;;;;;;;;;5095138;28;20028;-85
2022/04/24 14:10:20;;;;;;;12.02;5.53;;;;;;;;;;5096788;28;20024;-83
2022/04/24 14:12:45;;;;;;;11.15;8.07;;;;;;;;;;5097183;28;20476;-83
2022/04/24 14:15:10;;;;;;;10.35;6.75;;;;;;;;;;5094654;28;20036;-83
2022/04/24 14:17:36;;;;;;;1.30;1.10;;;;;;;;;;5095670;28;20078;-83
2022/04/24 14:20:01;;;;;;;0.57;0.57;;;;;;;;;;5095444;28;20085;-83
2022/04/24 14:22:26;;;;;;;0.57;0.57;;;;;;;;;;5096475;28;20031;-83
2022/04/24 14:24:53;;;;;;;2.47;0.57;;;;;;;;;;5096390;28;20387;-83
2022/04/24 14:27:18;;;;;;;1.13;0.43;;;;;;;;;;5096887;28;20089;-82
2022/04/24 14:29:44;;;;;;;1.10;0.50;;;;;;;;;;5096392;28;20036;-82